Time;durP1;ratioP1;P1;durP2;ratioP2;P2;SDS_P1;SDS_P2;PMS_P1;PMS_P2;Temp;Humidity;BMP_temperature;BMP_pressure;BME280_temperature;BME280_humidity;BME280_pressure;Samples;Min_cycle;Max_cycle;Signal;HPM_P1;HPM_P2
2022/03/30 00:01:34;;;;;;;10.33;6.67;;;;;;;12.62;55.31;97742.34;5114459;27;41122;-74
2022/03/30 00:04:02;;;;;;;8.80;6.83;;;;;;;12.55;55.93;97719.00;5133136;27;42087;-74
2022/03/30 00:06:29;;;;;;;13.37;8.23;;;;;;;12.55;55.91;97734.09;5114318;27;42705;-73
2022/03/30 00:08:56;;;;;;;9.70;6.70;;;;;;;12.43;56.02;97712.13;5114364;27;44513;-77
2022/03/30 00:11:26;;;;;;;12.67;7.77;;;;;;;12.44;55.47;97716.47;5114136;27;40711;-74
2022/03/30 00:13:54;;;;;;;10.90;7.10;;;;;;;12.41;55.11;97716.72;5113721;27;40517;-72
2022/03/30 00:16:21;;;;;;;11.13;7.07;;;;;;;12.41;54.70;97729.16;5148010;27;42581;-73
2022/03/30 00:18:48;;;;;;;10.80;6.27;;;;;;;12.40;54.33;97730.13;5135230;27;42137;-73
2022/03/30 00:21:16;;;;;;;9.03;5.73;;;;;;;12.36;53.84;97729.59;5136465;27;41721;-74
2022/03/30 00:23:44;;;;;;;9.53;6.43;;;;;;;12.24;53.57;97707.56;5114092;27;41884;-73
2022/03/30 00:26:11;;;;;;;7.77;5.40;;;;;;;12.32;53.55;97728.16;5132536;27;43497;-75
2022/03/30 00:28:40;;;;;;;9.97;6.03;;;;;;;12.30;53.63;97735.41;5113964;27;41245;-73
2022/03/30 00:31:07;;;;;;;8.97;6.40;;;;;;;12.24;53.40;97726.16;5113610;27;41400;-75
2022/03/30 00:33:35;;;;;;;7.57;5.40;;;;;;;12.21;53.25;97730.91;5131958;27;42509;-74
2022/03/30 00:36:02;;;;;;;7.80;5.33;;;;;;;12.18;53.13;97720.56;5137046;27;42818;-73
2022/03/30 00:38:30;;;;;;;8.30;5.73;;;;;;;12.13;53.02;97725.41;5132720;27;42976;-74
2022/03/30 00:40:57;;;;;;;11.50;6.40;;;;;;;12.08;52.88;97720.53;5131927;27;41661;-72
2022/03/30 00:43:25;;;;;;;9.83;6.03;;;;;;;12.04;52.58;97718.25;5113911;27;42369;-75
2022/03/30 00:45:54;;;;;;;8.37;5.70;;;;;;;11.79;52.61;97687.69;5113168;27;43001;-73
2022/03/30 00:48:21;;;;;;;7.53;5.20;;;;;;;11.93;52.36;97715.69;5132352;27;43454;-74
2022/03/30 00:50:49;;;;;;;8.03;5.20;;;;;;;11.90;52.43;97727.41;5131999;27;40641;-74
2022/03/30 00:53:17;;;;;;;8.30;4.77;;;;;;;11.86;52.46;97716.22;5113604;27;41280;-73
2022/03/30 00:55:45;;;;;;;7.10;5.53;;;;;;;11.84;52.04;97715.53;5132155;27;43787;-74
2022/03/30 00:58:13;;;;;;;7.47;4.80;;;;;;;11.80;52.11;97722.03;5132099;27;43066;-75
2022/03/30 01:00:40;;;;;;;7.67;5.40;;;;;;;11.63;51.89;97698.72;5113827;27;41904;-73
2022/03/30 01:03:09;;;;;;;7.67;4.90;;;;;;;11.77;51.53;97717.00;5096331;27;40929;-73
2022/03/30 01:05:37;;;;;;;8.23;4.90;;;;;;;11.76;51.77;97720.63;5123032;27;42747;-73
2022/03/30 01:08:05;;;;;;;9.67;4.53;;;;;;;11.75;51.42;97721.59;5131939;27;42687;-74
2022/03/30 01:10:33;;;;;;;7.57;4.40;;;;;;;11.75;51.51;97718.94;5132085;27;40760;-73
2022/03/30 01:13:03;;;;;;;7.73;5.27;;;;;;;11.75;51.41;97708.31;5096189;27;43151;-72
2022/03/30 01:15:31;;;;;;;6.33;4.30;;;;;;;11.76;51.40;97706.50;5113369;27;41511;-72
2022/03/30 01:17:59;;;;;;;8.00;4.97;;;;;;;11.48;51.19;97658.47;5112970;27;41113;-75
2022/03/30 01:20:29;;;;;;;8.03;4.17;;;;;;;11.76;51.36;97702.06;5131770;27;41205;-74
2022/03/30 01:22:58;;;;;;;5.73;3.90;;;;;;;11.75;51.05;97692.41;5113264;27;40734;-74
2022/03/30 01:25:26;;;;;;;7.00;4.83;;;;;;;11.72;51.10;97687.38;5113212;27;42568;-74
2022/03/30 01:27:53;;;;;;;7.23;4.73;;;;;;;11.68;51.09;97685.94;5115939;27;42380;-75
2022/03/30 01:33:08;;;;;;;7.13;4.77;;;;;;;11.59;51.32;97668.16;5134522;27;42330;-75
2022/03/30 01:35:36;;;;;;;6.87;4.57;;;;;;;11.55;51.63;97669.38;5115897;27;43865;-74
2022/03/30 01:38:05;;;;;;;6.90;5.07;;;;;;;11.53;51.70;97658.06;5099462;27;44166;-73
2022/03/30 01:40:33;;;;;;;6.67;5.17;;;;;;;11.51;52.21;97663.50;5117098;27;40991;-73
2022/03/30 01:43:01;;;;;;;7.20;4.90;;;;;;;11.35;51.97;97630.50;5135144;27;41770;-73
2022/03/30 01:45:29;;;;;;;7.93;5.13;;;;;;;11.36;52.02;97638.31;5116688;27;42871;-74
2022/03/30 01:48:01;;;;;;;7.77;5.00;;;;;;;11.43;52.00;97649.22;5135072;27;42357;-73
2022/03/30 01:50:31;;;;;;;7.10;4.80;;;;;;;11.43;51.93;97644.75;5099125;27;40079;-73
2022/03/30 01:52:59;;;;;;;6.70;4.53;;;;;;;11.43;51.70;97650.06;5135248;27;41404;-74
2022/03/30 01:55:28;;;;;;;9.77;4.40;;;;;;;11.45;51.81;97647.28;5116049;27;44265;-75
2022/03/30 01:57:56;;;;;;;6.73;4.40;;;;;;;11.41;52.12;97630.78;5116180;27;40434;-72
2022/03/30 02:00:24;;;;;;;7.60;4.80;;;;;;;11.27;52.78;97614.38;5118730;27;41046;-72
2022/03/30 02:02:51;;;;;;;8.53;5.40;;;;;;;11.30;52.43;97622.91;5116082;27;42742;-74
2022/03/30 02:05:19;;;;;;;7.43;5.00;;;;;;;11.26;52.84;97615.34;5115834;27;42136;-74
2022/03/30 02:07:48;;;;;;;8.20;5.43;;;;;;;11.24;52.40;97617.31;5133566;27;41399;-74
2022/03/30 02:10:16;;;;;;;7.07;4.80;;;;;;;11.20;52.52;97611.44;5134737;27;42127;-73
2022/03/30 02:12:44;;;;;;;7.70;4.73;;;;;;;11.24;52.19;97612.03;5099298;27;43132;-75
2022/03/30 02:15:13;;;;;;;6.97;4.77;;;;;;;11.26;52.20;97610.06;5098914;27;42988;-73
2022/03/30 02:17:41;;;;;;;7.00;5.00;;;;;;;11.25;52.05;97611.84;5115837;27;41042;-72
2022/03/30 02:20:11;;;;;;;6.97;4.83;;;;;;;11.25;52.05;97605.75;5134690;27;41865;-73
2022/03/30 02:22:40;;;;;;;6.67;5.37;;;;;;;11.23;52.05;97610.34;5115965;27;42028;-75
2022/03/30 02:25:08;;;;;;;5.87;4.43;;;;;;;11.20;51.84;97607.94;5134439;27;42735;-75
2022/03/30 02:27:36;;;;;;;6.50;4.20;;;;;;;11.17;52.65;97595.78;5116273;27;42562;-74
2022/03/30 02:30:07;;;;;;;7.30;4.50;;;;;;;11.15;52.35;97603.88;5115965;27;41353;-72
2022/03/30 02:32:36;;;;;;;8.77;5.10;;;;;;;11.12;52.51;97598.84;5115354;27;42766;-73
2022/03/30 02:35:04;;;;;;;6.73;4.50;;;;;;;11.07;52.34;97597.53;5134124;27;43743;-73
2022/03/30 02:37:31;;;;;;;6.07;4.67;;;;;;;11.06;52.39;97599.34;5115315;27;42347;-75
2022/03/30 02:39:59;;;;;;;8.37;5.20;;;;;;;10.94;52.50;97578.34;5116143;27;41625;-75
2022/03/30 02:42:26;;;;;;;8.17;5.23;;;;;;;11.01;52.73;97588.28;5115820;27;42058;-75
2022/03/30 02:44:54;;;;;;;9.57;5.37;;;;;;;11.00;52.98;97588.44;5115741;27;43706;-75
2022/03/30 02:50:05;;;;;;;9.03;4.63;;;;;;;10.97;52.51;97591.34;5132125;27;41331;-76
2022/03/30 02:52:33;;;;;;;7.17;4.93;;;;;;;10.97;52.72;97586.88;5133994;27;42799;-73
2022/03/30 02:55:00;;;;;;;9.83;5.77;;;;;;;10.97;52.32;97594.84;5133120;27;42812;-74
2022/03/30 02:57:28;;;;;;;8.30;5.57;;;;;;;10.98;52.82;97587.72;5098389;27;42281;-74
2022/03/30 02:59:55;;;;;;;7.90;5.00;;;;;;;11.00;52.61;97589.25;5115804;27;41762;-75
2022/03/30 03:02:24;;;;;;;8.07;4.77;;;;;;;11.00;52.41;97594.56;5115654;27;40568;-73
2022/03/30 03:04:52;;;;;;;7.07;5.40;;;;;;;10.98;52.13;97591.22;5132532;27;43791;-75
2022/03/30 03:07:19;;;;;;;8.30;4.73;;;;;;;10.97;52.17;97592.19;5115119;27;41393;-75
2022/03/30 03:09:47;;;;;;;10.03;4.83;;;;;;;10.95;52.15;97585.31;5132737;27;40845;-74
2022/03/30 03:12:14;;;;;;;7.33;4.83;;;;;;;10.96;52.21;97587.00;5098211;27;40501;-74
2022/03/30 03:14:42;;;;;;;5.60;4.43;;;;;;;10.96;52.10;97579.91;5115235;27;41690;-74
2022/03/30 03:17:09;;;;;;;9.43;4.97;;;;;;;10.96;52.16;97582.56;5098160;27;41196;-75
2022/03/30 03:19:38;;;;;;;5.87;4.67;;;;;;;10.95;52.05;97575.56;5132400;27;41175;-73
2022/03/30 03:22:07;;;;;;;8.90;4.93;;;;;;;10.96;52.09;97571.13;5133425;27;42689;-74
2022/03/30 03:24:34;;;;;;;8.53;4.93;;;;;;;10.97;52.32;97568.34;5115261;27;43716;-74
2022/03/30 03:27:02;;;;;;;8.60;5.83;;;;;;;10.96;52.25;97569.31;5133391;27;42874;-72
2022/03/30 03:29:29;;;;;;;8.60;5.07;;;;;;;10.95;52.09;97564.97;5115229;27;40902;-74
2022/03/30 03:31:57;;;;;;;6.97;4.93;;;;;;;10.93;52.42;97556.31;5133134;27;41948;-73
2022/03/30 03:34:24;;;;;;;7.27;5.10;;;;;;;10.93;52.38;97548.38;5133046;27;43420;-75
2022/03/30 03:36:53;;;;;;;8.00;4.47;;;;;;;10.95;52.16;97553.53;5113928;27;42502;-73
2022/03/30 03:39:21;;;;;;;7.47;4.63;;;;;;;10.91;51.73;97547.66;5114053;27;41383;-74
2022/03/30 03:41:48;;;;;;;5.77;4.13;;;;;;;10.91;51.60;97534.41;5097859;27;41507;-73
2022/03/30 03:44:15;;;;;;;7.83;4.90;;;;;;;11.02;51.65;97550.22;5133268;27;42958;-73
2022/03/30 03:46:43;;;;;;;6.33;4.47;;;;;;;11.01;51.60;97548.56;5114650;27;42052;-74
2022/03/30 03:49:11;;;;;;;7.83;4.73;;;;;;;10.98;52.10;97548.84;5113240;27;41065;-73
2022/03/30 03:51:38;;;;;;;6.67;4.53;;;;;;;10.94;52.15;97550.06;5114393;27;41406;-73
2022/03/30 03:54:08;;;;;;;6.47;4.23;;;;;;;10.90;52.05;97548.63;5114460;27;45077;-74
2022/03/30 03:56:35;;;;;;;6.60;3.40;;;;;;;10.84;52.52;97551.81;5096959;27;42130;-75
2022/03/30 03:59:04;;;;;;;6.10;4.10;;;;;;;10.78;52.70;97547.00;5144807;27;41085;-74
2022/03/30 04:01:31;;;;;;;7.83;4.67;;;;;;;10.73;52.96;97543.94;5099480;27;40864;-74
2022/03/30 04:03:59;;;;;;;7.23;4.13;;;;;;;10.66;53.14;97545.41;5114344;27;44183;-74
2022/03/30 04:06:26;;;;;;;8.97;5.37;;;;;;;10.60;53.14;97543.28;5116254;27;43363;-74
2022/03/30 04:08:54;;;;;;;9.27;5.97;;;;;;;10.54;55.30;97526.09;5150343;27;41081;-74
2022/03/30 04:11:23;;;;;;;8.47;4.80;;;;;;;10.45;56.04;97513.63;5102707;27;42637;-75
2022/03/30 04:13:51;;;;;;;8.40;5.33;;;;;;;10.43;56.15;97518.19;5134254;27;43799;-75
2022/03/30 04:16:18;;;;;;;9.57;5.80;;;;;;;10.32;56.24;97508.50;5098960;27;41221;-73
2022/03/30 04:18:46;;;;;;;8.90;5.80;;;;;;;10.34;55.83;97517.16;5134690;27;40955;-73
2022/03/30 04:21:13;;;;;;;8.20;4.37;;;;;;;10.35;55.74;97518.84;5126271;27;42877;-73
2022/03/30 04:23:41;;;;;;;5.90;4.33;;;;;;;10.36;55.49;97523.19;5114300;27;41736;-73
2022/03/30 04:26:10;;;;;;;7.10;4.13;;;;;;;10.38;55.37;97518.59;5096629;27;41175;-73
2022/03/30 04:28:40;;;;;;;7.80;4.97;;;;;;;10.38;55.59;97518.59;5101969;27;39927;-75
2022/03/30 04:31:08;;;;;;;6.37;4.60;;;;;;;10.34;55.75;97506.59;5137500;27;41500;-74
2022/03/30 04:33:36;;;;;;;7.83;4.97;;;;;;;10.32;55.55;97511.16;5114099;27;43553;-74
2022/03/30 04:36:04;;;;;;;8.23;5.30;;;;;;;10.30;55.92;97504.31;5096360;27;41266;-74
2022/03/30 04:38:32;;;;;;;8.93;5.30;;;;;;;10.28;55.71;97508.88;5113960;27;41390;-73
2022/03/30 04:41:00;;;;;;;5.83;4.40;;;;;;;10.25;56.00;97512.66;5131737;27;41881;-73
2022/03/30 04:43:28;;;;;;;7.93;5.20;;;;;;;10.24;56.72;97510.97;5132126;27;43325;-76
2022/03/30 04:45:57;;;;;;;5.83;4.67;;;;;;;10.23;56.59;97514.56;5096366;27;42616;-76
2022/03/30 04:48:24;;;;;;;8.07;5.03;;;;;;;10.15;56.97;97498.44;5132116;27;40782;-74
2022/03/30 04:50:53;;;;;;;10.30;5.77;;;;;;;10.14;57.41;97503.88;5113034;27;40694;-74
2022/03/30 04:53:21;;;;;;;9.33;5.73;;;;;;;10.10;57.55;97498.00;5114324;27;43828;-74
2022/03/30 04:55:48;;;;;;;7.90;4.90;;;;;;;10.10;58.05;97503.28;5118339;27;42748;-77
2022/03/30 04:58:16;;;;;;;8.10;5.00;;;;;;;10.08;58.56;97497.28;5113357;27;40739;-72
2022/03/30 05:00:44;;;;;;;7.30;4.13;;;;;;;10.06;58.23;97497.41;5119996;27;42265;-76
2022/03/30 05:03:13;;;;;;;6.40;4.60;;;;;;;10.07;58.50;97503.53;5133752;27;43517;-73
2022/03/30 05:05:40;;;;;;;6.33;4.27;;;;;;;9.86;59.24;97466.47;5118373;27;41326;-74
2022/03/30 05:08:08;;;;;;;6.43;4.47;;;;;;;10.04;59.36;97493.19;5128287;27;42224;-75
2022/03/30 05:10:36;;;;;;;6.80;4.20;;;;;;;9.99;59.62;97484.81;5130111;27;42659;-74
2022/03/30 05:13:05;;;;;;;7.20;5.20;;;;;;;10.01;59.84;97488.19;5111906;27;43781;-73
2022/03/30 05:15:33;;;;;;;8.40;4.70;;;;;;;9.99;60.07;97485.66;5111611;27;41289;-75
2022/03/30 05:18:02;;;;;;;8.20;5.40;;;;;;;9.97;61.13;97490.22;5096140;27;39913;-76
2022/03/30 05:20:30;;;;;;;5.43;4.50;;;;;;;9.93;61.15;97482.66;5112833;27;41483;-72
2022/03/30 05:22:58;;;;;;;8.10;5.20;;;;;;;9.92;61.12;97489.75;5129961;27;43724;-74
2022/03/30 05:25:26;;;;;;;9.37;5.23;;;;;;;9.89;61.21;97487.34;5131647;27;42916;-72
2022/03/30 05:27:53;;;;;;;7.20;5.40;;;;;;;9.87;61.63;97484.00;5112732;27;41033;-76
2022/03/30 05:30:21;;;;;;;9.47;5.57;;;;;;;9.86;62.19;97478.84;5113250;27;41704;-74
2022/03/30 05:32:49;;;;;;;9.07;5.43;;;;;;;9.80;62.87;97482.81;5131824;27;42793;-75
2022/03/30 05:35:17;;;;;;;11.80;6.53;;;;;;;9.78;62.81;97481.25;5112503;27;43095;-73
2022/03/30 05:37:50;;;;;;;11.50;6.20;;;;;;;9.79;62.77;97482.94;5112780;27;40030;-76
2022/03/30 05:40:18;;;;;;;11.07;5.87;;;;;;;9.75;62.64;97471.78;5128810;27;41411;-72
2022/03/30 05:42:52;;;;;;;7.83;4.60;;;;;;;9.73;63.03;97479.84;5095607;27;41773;-75
2022/03/30 05:45:19;;;;;;;10.00;5.60;;;;;;;9.72;64.18;97472.88;5131656;27;42813;-73
2022/03/30 05:47:46;;;;;;;8.13;5.67;;;;;;;9.71;64.38;97471.19;5117077;27;40908;-75
2022/03/30 05:50:14;;;;;;;9.77;5.50;;;;;;;9.72;65.09;97464.09;5112182;27;41894;-75
2022/03/30 05:52:41;;;;;;;7.43;4.80;;;;;;;9.72;65.48;97462.31;5130726;27;43515;-74
2022/03/30 05:55:10;;;;;;;9.27;5.50;;;;;;;9.72;67.03;97464.94;5112659;27;43517;-74
2022/03/30 05:57:38;;;;;;;8.60;6.03;;;;;;;9.70;65.95;97469.50;5108439;27;39937;-77
2022/03/30 06:00:08;;;;;;;10.80;5.90;;;;;;;9.69;66.78;97470.47;5130940;27;42463;-75
2022/03/30 06:02:42;;;;;;;8.93;5.47;;;;;;;9.69;67.11;97467.84;5133545;27;20364;-76
2022/03/30 06:05:10;;;;;;;8.57;5.63;;;;;;;9.57;66.80;97442.41;5112564;27;41431;-74
2022/03/30 06:07:38;;;;;;;9.57;5.50;;;;;;;9.64;67.51;97448.84;5112618;27;41932;-77
2022/03/30 06:10:06;;;;;;;8.50;5.83;;;;;;;9.67;69.69;97448.59;5112932;27;42620;-77
2022/03/30 06:12:35;;;;;;;9.90;6.50;;;;;;;9.64;68.65;97458.63;5114381;27;41732;-78
2022/03/30 06:15:03;;;;;;;10.30;6.03;;;;;;;9.61;69.14;97453.56;5116556;27;42037;-78
2022/03/30 06:17:31;;;;;;;13.43;7.70;;;;;;;9.32;69.91;97417.13;5116307;27;39751;-77
2022/03/30 06:19:59;;;;;;;11.87;6.70;;;;;;;9.50;70.50;97446.50;5135474;27;41799;-74
2022/03/30 06:22:29;;;;;;;14.57;6.23;;;;;;;9.42;70.59;97448.91;5116093;27;44087;-79
2022/03/30 06:24:58;;;;;;;13.60;6.97;;;;;;;9.37;70.96;97443.16;5116236;27;41202;-74
2022/03/30 06:27:25;;;;;;;16.00;8.00;;;;;;;9.34;71.72;97451.34;5134068;27;41740;-73
2022/03/30 06:29:55;;;;;;;17.77;9.37;;;;;;;9.32;71.93;97447.97;5124053;27;41602;-75
2022/03/30 06:32:23;;;;;;;13.67;8.43;;;;;;;9.35;71.91;97453.84;5116285;27;42669;-75
2022/03/30 06:34:50;;;;;;;19.30;9.43;;;;;;;9.35;71.79;97464.44;5116794;27;42661;-75
2022/03/30 06:37:18;;;;;;;16.60;8.27;;;;;;;9.39;71.82;97474.75;5115576;27;40990;-77
2022/03/30 06:39:45;;;;;;;14.73;8.40;;;;;;;9.39;71.53;97464.19;5098992;27;40674;-74
2022/03/30 06:42:13;;;;;;;15.60;8.63;;;;;;;9.31;71.94;97456.84;5115442;27;43703;-75
2022/03/30 06:44:41;;;;;;;17.40;9.60;;;;;;;9.41;71.82;97473.66;5131170;27;43094;-77
2022/03/30 06:47:10;;;;;;;17.77;8.77;;;;;;;9.40;71.43;97477.25;5131864;27;40761;-76
2022/03/30 06:49:38;;;;;;;12.83;8.10;;;;;;;9.43;71.05;97478.81;5133832;27;41661;-77
2022/03/30 06:52:07;;;;;;;17.83;9.40;;;;;;;9.45;71.60;97474.25;5098433;27;42491;-76
2022/03/30 06:54:35;;;;;;;20.73;10.23;;;;;;;9.45;70.96;97479.53;5115794;27;42269;-76
2022/03/30 06:57:04;;;;;;;16.93;8.93;;;;;;;9.47;70.56;97483.75;5098274;27;41102;-77
2022/03/30 06:59:32;;;;;;;20.33;8.17;;;;;;;9.50;70.33;97483.50;5150079;27;41685;-75
2022/03/30 07:01:59;;;;;;;17.57;9.87;;;;;;;9.52;69.96;97492.13;5115039;27;43519;-76
2022/03/30 07:04:28;;;;;;;13.37;7.87;;;;;;;9.55;69.73;97494.53;5126625;27;43325;-74
2022/03/30 07:12:28;;;;;;;18.10;9.60;;;;;;;9.53;70.31;97482.41;5114072;27;42783;-76
2022/03/30 07:14:56;;;;;;;17.73;9.37;;;;;;;9.54;70.51;97490.19;5133881;27;43485;-76
2022/03/30 07:17:23;;;;;;;16.47;8.97;;;;;;;9.47;70.15;97477.63;5133198;27;41990;-74
2022/03/30 07:19:52;;;;;;;23.23;11.13;;;;;;;9.57;70.31;97489.13;5098372;27;40819;-76
2022/03/30 07:22:20;;;;;;;20.80;10.67;;;;;;;9.55;70.64;97486.59;5114814;27;43211;-77
2022/03/30 07:24:47;;;;;;;20.37;11.03;;;;;;;9.56;70.60;97500.66;5100192;27;42318;-75
2022/03/30 07:27:14;;;;;;;21.17;11.23;;;;;;;9.56;70.53;97493.56;5116192;27;39995;-75
2022/03/30 07:29:42;;;;;;;20.20;10.07;;;;;;;9.58;70.99;97490.81;5115097;27;42182;-75
2022/03/30 07:32:09;;;;;;;17.93;9.00;;;;;;;9.57;70.35;97495.25;5115014;27;42605;-76
2022/03/30 07:34:37;;;;;;;19.73;9.80;;;;;;;9.39;70.39;97441.25;5097862;27;41445;-73
2022/03/30 07:37:06;;;;;;;16.23;9.40;;;;;;;9.64;70.64;97477.94;5147855;27;41060;-75
2022/03/30 07:39:33;;;;;;;22.17;10.73;;;;;;;9.78;70.67;97483.91;5133285;27;41742;-74
2022/03/30 07:42:01;;;;;;;20.10;10.63;;;;;;;9.84;70.97;97471.03;5097603;27;41957;-75
2022/03/30 07:44:28;;;;;;;21.67;11.57;;;;;;;9.87;71.50;97480.53;5114688;27;42124;-75
2022/03/30 07:46:58;;;;;;;21.17;10.47;;;;;;;9.91;71.55;97471.38;5115167;27;43169;-77
2022/03/30 07:49:26;;;;;;;22.77;10.67;;;;;;;9.93;71.50;97469.44;5077539;27;41632;-74
2022/03/30 07:51:53;;;;;;;25.97;11.73;;;;;;;10.01;72.39;97467.84;5133352;27;42775;-74
2022/03/30 07:54:22;;;;;;;21.53;12.03;;;;;;;10.06;72.20;97464.81;5114185;27;41238;-74
2022/03/30 07:56:52;;;;;;;24.17;12.03;;;;;;;10.12;72.11;97459.03;5114577;27;42404;-75
2022/03/30 07:59:20;;;;;;;21.87;12.03;;;;;;;10.10;72.27;97455.69;5132260;27;42777;-77
2022/03/30 08:01:48;;;;;;;21.70;12.00;;;;;;;10.16;71.82;97465.72;5127891;27;42780;-78
2022/03/30 08:04:15;;;;;;;23.20;12.97;;;;;;;10.17;71.80;97446.25;5098369;27;42735;-76
2022/03/30 08:06:43;;;;;;;30.03;13.17;;;;;;;10.25;71.40;97462.38;5097211;27;41070;-74
2022/03/30 08:09:10;;;;;;;26.50;13.40;;;;;;;10.35;71.43;97475.69;5133552;27;42708;-75
2022/03/30 08:11:39;;;;;;;23.37;10.77;;;;;;;10.43;71.62;97468.75;5114994;27;42736;-75
2022/03/30 08:14:07;;;;;;;29.80;14.13;;;;;;;10.41;71.37;97452.16;5132575;27;43265;-73
2022/03/30 08:16:35;;;;;;;27.53;13.47;;;;;;;10.59;72.02;97462.19;5097023;27;41653;-77
2022/03/30 08:19:02;;;;;;;25.90;12.90;;;;;;;10.74;71.01;97472.31;5112280;27;42181;-75
2022/03/30 08:24:14;;;;;;;30.97;14.87;;;;;;;11.04;71.28;97473.28;5110798;27;42530;-74
2022/03/30 08:26:43;;;;;;;27.17;14.17;;;;;;;11.16;71.21;97477.53;5132339;27;41912;-77
2022/03/30 08:29:11;;;;;;;31.80;15.10;;;;;;;11.15;71.34;97458.13;5096490;27;43978;-76
2022/03/30 08:31:39;;;;;;;30.13;14.73;;;;;;;11.20;70.87;97473.66;5130822;27;42861;-74
2022/03/30 08:34:06;;;;;;;28.43;15.03;;;;;;;11.16;71.36;97472.22;5130644;27;42684;-75
2022/03/30 08:36:34;;;;;;;29.07;14.40;;;;;;;11.18;71.32;97480.03;5131856;27;41009;-79
2022/03/30 08:39:10;;;;;;;33.00;16.03;;;;;;;11.20;70.62;97476.28;5132155;27;42354;-78
2022/03/30 08:41:43;;;;;;;29.17;14.90;;;;;;;11.13;70.73;97468.03;5130207;27;42817;-76
2022/03/30 08:44:17;;;;;;;30.50;15.80;;;;;;;11.20;70.53;97491.34;5128849;27;43029;-74
2022/03/30 08:46:46;;;;;;;25.67;14.17;;;;;;;11.18;70.74;97485.34;5113905;27;41983;-77
2022/03/30 08:49:14;;;;;;;29.83;15.53;;;;;;;11.15;70.61;97481.13;5112581;27;41411;-76
2022/03/30 08:51:45;;;;;;;29.17;15.53;;;;;;;11.13;70.76;97483.91;5130673;27;43266;-74
2022/03/30 08:54:15;;;;;;;27.63;14.53;;;;;;;11.12;70.90;97479.63;5110242;27;42843;-75
2022/03/30 08:56:44;;;;;;;30.53;15.03;;;;;;;11.06;70.65;97482.78;5113664;27;40962;-76
2022/03/30 08:59:16;;;;;;;29.17;15.20;;;;;;;10.96;70.82;97479.25;5130469;27;41738;-76
2022/03/30 09:01:44;;;;;;;28.93;15.23;;;;;;;10.89;70.75;97480.72;5130097;27;43616;-72
2022/03/30 09:04:13;;;;;;;29.90;15.87;;;;;;;10.86;71.04;97474.88;5131592;27;42010;-77
2022/03/30 09:06:44;;;;;;;28.43;14.53;;;;;;;10.80;70.82;97465.63;5113601;27;41623;-76
2022/03/30 09:09:12;;;;;;;31.63;15.90;;;;;;;10.85;70.69;97475.84;5096277;27;40601;-77
2022/03/30 09:11:53;;;;;;;31.07;16.23;;;;;;;10.74;70.99;97458.25;5131660;27;42823;-75
2022/03/30 09:14:21;;;;;;;30.07;15.00;;;;;;;10.78;70.99;97479.00;5095827;27;43936;-73
2022/03/30 09:16:51;;;;;;;34.43;18.03;;;;;;;10.74;70.85;97476.78;5132267;27;42118;-74
2022/03/30 09:19:21;;;;;;;36.97;17.57;;;;;;;10.72;71.13;97474.25;5131188;27;41760;-75
2022/03/30 09:21:53;;;;;;;34.60;17.87;;;;;;;10.56;71.45;97457.13;5111321;27;42720;-73
2022/03/30 09:24:22;;;;;;;31.23;17.27;;;;;;;10.56;71.37;97462.44;5112640;27;42979;-74
2022/03/30 09:26:52;;;;;;;28.27;16.20;;;;;;;10.58;71.10;97471.94;5131716;27;40894;-74
2022/03/30 09:29:21;;;;;;;35.60;17.10;;;;;;;10.48;70.74;97478.97;5095713;27;42874;-75
2022/03/30 09:31:49;;;;;;;33.37;17.83;;;;;;;10.39;71.05;97472.63;5112952;27;42846;-73
2022/03/30 09:34:18;;;;;;;32.60;16.33;;;;;;;10.34;70.88;97480.13;5131074;27;42396;-75
2022/03/30 09:36:48;;;;;;;33.47;16.63;;;;;;;10.32;70.78;97476.75;5131598;27;41921;-78
2022/03/30 09:39:29;;;;;;;33.70;17.70;;;;;;;10.30;71.04;97483.97;5092126;28;41985;-76
2022/03/30 09:42:00;;;;;;;31.60;17.73;;;;;;;10.32;71.25;97470.63;5109606;28;43712;-75
2022/03/30 09:44:29;;;;;;;30.10;15.60;;;;;;;10.26;71.73;97465.88;5110543;27;41873;-75
2022/03/30 09:47:03;;;;;;;27.23;15.80;;;;;;;10.17;71.45;97459.47;5113556;27;40111;-77
2022/03/30 09:49:39;;;;;;;30.13;16.33;;;;;;;10.26;71.44;97477.25;5113419;27;42348;-74
2022/03/30 09:52:15;;;;;;;29.77;15.13;;;;;;;10.22;71.69;97469.72;5132197;27;42790;-74
2022/03/30 09:54:47;;;;;;;34.27;17.13;;;;;;;9.86;71.52;97418.88;5131756;27;43123;-74
2022/03/30 09:57:18;;;;;;;26.07;15.67;;;;;;;10.21;71.24;97465.41;5115113;27;42005;-77
2022/03/30 10:00:02;;;;;;;37.90;17.17;;;;;;;10.19;71.72;97465.53;5135849;27;40581;-73
2022/03/30 10:02:38;;;;;;;29.53;15.63;;;;;;;10.13;71.91;97457.22;5133802;27;43635;-76
2022/03/30 10:05:08;;;;;;;33.07;15.97;;;;;;;10.12;72.12;97453.75;5116424;27;42204;-74
2022/03/30 10:07:36;;;;;;;33.13;16.80;;;;;;;10.12;72.48;97447.63;5116139;27;41042;-74
2022/03/30 10:10:05;;;;;;;30.80;15.73;;;;;;;10.15;72.34;97452.63;5116277;27;43328;-72
2022/03/30 10:12:34;;;;;;;30.67;15.57;;;;;;;10.13;72.35;97450.16;5115537;27;43639;-77
2022/03/30 10:15:02;;;;;;;32.27;15.23;;;;;;;10.12;72.17;97459.03;5116423;27;42955;-75
2022/03/30 10:17:30;;;;;;;33.60;17.10;;;;;;;10.11;72.35;97457.34;5146283;27;40702;-74
2022/03/30 10:20:01;;;;;;;30.93;16.43;;;;;;;10.11;72.48;97452.06;5128597;27;41832;-73
2022/03/30 10:23:05;;;;;;;34.30;16.73;;;;;;;10.13;72.43;97439.56;5145559;27;42474;-74
2022/03/30 10:25:54;;;;;;;35.53;17.13;;;;;;;10.15;72.65;97437.59;5088768;27;42849;-74
2022/03/30 10:28:26;;;;;;;27.20;14.40;;;;;;;10.12;72.86;97443.16;5106911;27;41027;-75
2022/03/30 10:30:56;;;;;;;32.77;16.40;;;;;;;10.13;72.67;97439.56;5112658;27;42412;-75
2022/03/30 10:33:32;;;;;;;35.50;17.40;;;;;;;10.18;72.53;97442.69;5115189;27;42950;-75
2022/03/30 10:36:20;;;;;;;29.90;15.83;;;;;;;10.19;72.18;97436.41;5131078;27;42468;-77
2022/03/30 10:39:08;;;;;;;27.30;15.97;;;;;;;10.16;72.61;97431.34;5115772;27;41774;-77
2022/03/30 10:41:52;;;;;;;30.03;16.10;;;;;;;10.25;72.79;97437.72;5097357;27;42108;-77
2022/03/30 10:44:51;;;;;;;29.47;15.10;;;;;;;10.29;72.32;97420.59;5113405;27;42629;-80
2022/03/30 10:47:21;;;;;;;31.80;16.73;;;;;;;10.42;72.22;97437.97;5098884;27;42382;-75
2022/03/30 10:49:51;;;;;;;27.17;14.07;;;;;;;10.50;72.41;97431.22;5132234;27;40090;-74
2022/03/30 10:52:26;;;;;;;30.90;15.97;;;;;;;10.59;72.37;97433.06;5098074;27;40496;-79
2022/03/30 10:55:36;;;;;;;26.03;14.00;;;;;;;10.61;72.87;97428.47;5098560;27;44229;-75
2022/03/30 10:58:06;;;;;;;29.00;15.67;;;;;;;10.58;72.85;97434.03;5097425;27;42266;-76
2022/03/30 11:00:36;;;;;;;30.57;14.97;;;;;;;10.60;73.13;97421.50;5129364;27;39965;-75
2022/03/30 11:03:12;;;;;;;29.20;15.47;;;;;;;10.53;72.71;97425.63;5108306;27;42689;-78
2022/03/30 11:05:43;;;;;;;31.03;15.37;;;;;;;10.58;72.97;97421.63;5115840;27;42939;-75
2022/03/30 11:08:58;;;;;;;31.77;16.60;;;;;;;10.61;72.66;97423.19;5098456;27;41377;-76
2022/03/30 11:11:34;;;;;;;27.07;13.90;;;;;;;10.84;72.51;97411.47;5053545;28;40367;-74
2022/03/30 11:14:27;;;;;;;27.87;15.17;;;;;;;11.02;71.21;97415.13;5036754;28;40838;-76
2022/03/30 11:16:57;;;;;;;26.40;14.60;;;;;;;11.20;71.36;97403.91;5092164;28;43692;-74
2022/03/30 11:19:30;;;;;;;30.50;15.47;;;;;;;11.49;70.44;97412.78;5109099;27;41272;-74
2022/03/30 11:22:12;;;;;;;30.00;15.17;;;;;;;11.99;70.22;97387.00;5113282;27;41176;-73
2022/03/30 11:24:42;;;;;;;29.10;15.53;;;;;;;12.31;68.83;97407.94;5106282;27;41617;-74
2022/03/30 11:27:23;;;;;;;25.77;16.50;;;;;;;12.40;67.93;97403.59;5132607;27;42478;-75
2022/03/30 11:29:56;;;;;;;31.90;17.30;;;;;;;12.23;67.23;97416.63;5118794;27;41274;-74
2022/03/30 11:32:38;;;;;;;26.87;15.30;;;;;;;12.02;67.44;97412.41;5093974;28;39850;-74
2022/03/30 11:35:10;;;;;;;28.80;15.97;;;;;;;11.79;67.66;97402.09;5129799;27;41738;-76
2022/03/30 11:37:39;;;;;;;28.40;15.23;;;;;;;11.75;68.18;97402.47;5114082;27;42806;-77
2022/03/30 11:40:09;;;;;;;27.77;15.37;;;;;;;11.67;68.16;97391.72;5120912;27;42581;-74
2022/03/30 11:42:40;;;;;;;27.23;14.97;;;;;;;11.64;68.21;97403.44;5148903;27;40674;-76
2022/03/30 11:45:16;;;;;;;26.93;15.43;;;;;;;11.54;68.68;97402.59;5149790;27;41590;-76
2022/03/30 11:47:45;;;;;;;25.30;14.20;;;;;;;11.46;67.84;97411.25;5113921;27;43529;-75
2022/03/30 11:50:14;;;;;;;26.17;14.97;;;;;;;11.39;68.04;97407.44;5114112;27;42953;-76
2022/03/30 11:52:42;;;;;;;28.53;14.60;;;;;;;11.31;68.07;97411.75;5132855;27;41120;-74